Аэропорт: Кызылорда. Кызылорда

ICAO: UAOO

METAR:
2021-10-23 00:30:00
UAOO 230030Z 19004MPS 9999 FEW046CB 03/M08 Q1033 NOSIG RMK QFE763/1017
METAR:
2021-10-22 23:00:00
TAF UAOO 222300Z 2300/2309 19004MPS 9999 SCT040 BKN100